createdAt,value
2019-01-08T00:01:14.893Z,20.17
2019-01-08T00:03:47.526Z,21.00
2019-01-08T00:06:20.273Z,19.93
2019-01-08T00:08:52.982Z,21.23
2019-01-08T00:11:25.826Z,20.00
2019-01-08T00:13:59.907Z,20.73
2019-01-08T00:16:32.461Z,20.67
2019-01-08T00:19:05.091Z,20.90
2019-01-08T00:21:37.566Z,21.13
2019-01-08T00:24:10.197Z,20.10
2019-01-08T00:26:42.652Z,20.20
2019-01-08T00:29:15.194Z,20.77
2019-01-08T00:31:47.488Z,20.80
2019-01-08T00:34:20.050Z,21.10
2019-01-08T00:36:52.555Z,20.23
2019-01-08T00:39:24.941Z,21.70
2019-01-08T00:41:57.328Z,20.47
2019-01-08T00:44:30.277Z,21.40
2019-01-08T00:47:02.953Z,21.47
2019-01-08T00:49:35.517Z,21.37
2019-01-08T00:52:08.207Z,22.33
2019-01-08T00:54:40.592Z,21.27
2019-01-08T00:57:12.923Z,23.73
2019-01-08T00:59:45.654Z,21.57
2019-01-08T01:02:18.196Z,23.40
2019-01-08T01:04:50.830Z,22.57
2019-01-08T01:07:23.306Z,23.97
2019-01-08T01:09:57.397Z,23.57
2019-01-08T01:12:48.374Z,24.03
2019-01-08T01:15:20.779Z,24.37
2019-01-08T01:17:53.276Z,23.43
2019-01-08T01:20:25.764Z,22.73
2019-01-08T01:22:58.256Z,22.83
2019-01-08T01:25:30.952Z,21.83
2019-01-08T01:28:03.408Z,20.57
2019-01-08T01:30:36.491Z,21.70
2019-01-08T01:33:09.127Z,21.03
2019-01-08T01:35:41.828Z,20.70
2019-01-08T01:38:14.352Z,21.10
2019-01-08T01:40:47.452Z,22.03
2019-01-08T01:43:19.937Z,21.67
2019-01-08T01:45:52.388Z,22.23
2019-01-08T01:48:24.890Z,21.40
2019-01-08T01:50:59.489Z,20.87
2019-01-08T01:53:31.896Z,21.97
2019-01-08T01:56:04.423Z,22.47
2019-01-08T01:58:37.226Z,21.53
2019-01-08T02:01:10.131Z,21.07
2019-01-08T02:03:42.783Z,20.73
2019-01-08T02:06:16.721Z,20.70
2019-01-08T02:08:49.276Z,20.47
2019-01-08T02:11:21.799Z,21.73
2019-01-08T02:13:54.553Z,21.90
2019-01-08T02:16:27.210Z,21.77
2019-01-08T02:19:00.124Z,21.83
2019-01-08T02:21:34.437Z,21.27
2019-01-08T02:24:06.919Z,20.80
2019-01-08T02:26:39.317Z,21.13
2019-01-08T02:29:16.522Z,22.30
2019-01-08T02:31:45.814Z,21.97
2019-01-08T02:34:18.270Z,22.20
2019-01-08T02:36:51.618Z,22.37
2019-01-08T02:39:24.233Z,23.27
2019-01-08T02:41:56.863Z,23.83
2019-01-08T02:44:29.670Z,22.73
2019-01-08T02:47:02.205Z,21.73
2019-01-08T02:49:34.802Z,22.73
2019-01-08T02:52:07.440Z,22.23
2019-01-08T02:54:39.989Z,21.40
2019-01-08T02:57:12.639Z,23.40
2019-01-08T02:59:45.357Z,23.20
2019-01-08T03:02:17.719Z,21.53
2019-01-08T03:04:51.961Z,23.43
2019-01-08T03:07:24.398Z,22.90
2019-01-08T03:09:56.902Z,22.23
2019-01-08T03:12:29.389Z,23.83
2019-01-08T03:15:02.425Z,21.73
2019-01-08T03:17:34.941Z,21.67
2019-01-08T03:20:07.688Z,22.90
2019-01-08T03:22:40.374Z,23.20
2019-01-08T03:25:12.783Z,22.87
2019-01-08T03:27:45.586Z,22.13
2019-01-08T03:30:18.011Z,23.10
2019-01-08T03:32:50.587Z,23.50
2019-01-08T03:35:22.984Z,22.83
2019-01-08T03:37:55.626Z,23.67
2019-01-08T03:40:28.136Z,22.97
2019-01-08T03:43:00.801Z,22.70
2019-01-08T03:45:35.044Z,22.97
2019-01-08T03:48:07.643Z,23.50
2019-01-08T03:50:40.470Z,23.83
2019-01-08T03:53:13.259Z,23.53
2019-01-08T03:55:45.824Z,24.93
2019-01-08T03:58:18.425Z,23.70
2019-01-08T04:00:52.659Z,25.10
2019-01-08T04:03:25.256Z,23.37
2019-01-08T04:05:58.061Z,24.70
2019-01-08T04:08:30.939Z,25.57
2019-01-08T04:11:03.828Z,24.40
2019-01-08T04:13:36.304Z,26.43
2019-01-08T04:16:08.820Z,25.67
2019-01-08T04:18:41.315Z,26.10
2019-01-08T04:21:13.727Z,25.97
2019-01-08T04:23:46.269Z,24.07
2019-01-08T04:26:20.747Z,26.10
2019-01-08T04:28:53.344Z,24.80
2019-01-08T04:31:25.790Z,27.50
2019-01-08T04:33:58.345Z,28.70
2019-01-08T04:36:30.730Z,25.50
2019-01-08T04:39:03.389Z,28.40
2019-01-08T04:41:35.852Z,30.00
2019-01-08T04:44:08.410Z,31.00
2019-01-08T04:46:41.111Z,31.87
2019-01-08T04:49:13.729Z,30.60
2019-01-08T04:51:46.090Z,31.90
2019-01-08T04:54:18.686Z,32.63
2019-01-08T04:56:51.482Z,31.47
2019-01-08T04:59:24.046Z,32.80
2019-01-08T05:01:56.667Z,34.90
2019-01-08T05:04:29.457Z,33.63
2019-01-08T05:07:02.211Z,34.63
2019-01-08T05:09:34.708Z,33.23
2019-01-08T05:12:07.256Z,34.83
2019-01-08T05:14:40.348Z,34.60
2019-01-08T05:17:12.717Z,34.50
2019-01-08T05:19:45.520Z,33.77
2019-01-08T05:22:18.086Z,37.03
2019-01-08T05:24:50.497Z,38.63
2019-01-08T05:27:22.964Z,34.37
2019-01-08T05:29:55.532Z,32.50
2019-01-08T05:32:27.995Z,37.03
2019-01-08T05:35:00.619Z,40.17
2019-01-08T05:37:33.008Z,34.33
2019-01-08T05:40:05.669Z,33.20
2019-01-08T05:42:38.188Z,36.23
2019-01-08T05:45:11.081Z,35.40
2019-01-08T05:47:43.523Z,35.00
2019-01-08T05:50:15.990Z,40.07
2019-01-08T05:52:48.609Z,35.10
2019-01-08T05:55:21.287Z,36.03
2019-01-08T05:57:53.767Z,35.00
2019-01-08T06:00:37.714Z,37.33
2019-01-08T06:03:10.403Z,37.77
2019-01-08T06:05:43.515Z,38.27
2019-01-08T06:08:16.168Z,36.53
2019-01-08T06:10:49.106Z,36.20
2019-01-08T06:13:21.749Z,38.13
2019-01-08T06:15:54.448Z,40.70
2019-01-08T06:18:37.956Z,39.43
2019-01-08T06:21:10.613Z,39.23
2019-01-08T06:23:43.202Z,40.80
2019-01-08T06:26:15.726Z,40.03
2019-01-08T06:28:48.170Z,39.73
2019-01-08T06:31:22.653Z,43.37
2019-01-08T06:34:13.803Z,41.03
2019-01-08T06:36:46.411Z,39.10
2019-01-08T06:39:19.061Z,39.30
2019-01-08T06:41:51.770Z,38.43
2019-01-08T06:44:24.749Z,37.53
2019-01-08T06:46:57.220Z,38.77
2019-01-08T06:49:29.794Z,36.80
2019-01-08T06:52:02.225Z,36.47
2019-01-08T06:54:35.030Z,37.13
2019-01-08T06:57:07.986Z,41.53
2019-01-08T06:59:40.779Z,49.53
2019-01-08T07:02:13.487Z,45.10
2019-01-08T07:04:46.701Z,42.97
2019-01-08T07:07:19.386Z,39.10
2019-01-08T07:09:52.180Z,37.93
2019-01-08T07:12:24.891Z,39.90
2019-01-08T07:14:57.531Z,38.77
2019-01-08T07:17:30.069Z,40.47
2019-01-08T07:20:03.148Z,50.20
2019-01-08T07:22:37.760Z,39.97
2019-01-08T07:25:10.985Z,39.67
2019-01-08T07:27:43.730Z,41.43
2019-01-08T07:30:16.442Z,38.20
2019-01-08T07:32:49.317Z,39.27
2019-01-08T07:35:21.894Z,38.03
2019-01-08T07:38:05.206Z,37.87
2019-01-08T07:40:37.901Z,39.13
2019-01-08T07:43:11.143Z,38.07
2019-01-08T07:45:43.748Z,38.97
2019-01-08T07:48:16.536Z,37.37
2019-01-08T07:50:49.356Z,37.70
2019-01-08T07:53:23.209Z,36.53
2019-01-08T07:55:55.628Z,35.63
2019-01-08T07:58:29.661Z,34.97
2019-01-08T08:01:13.120Z,35.60
2019-01-08T08:03:48.412Z,34.53
2019-01-08T08:06:21.527Z,35.63
2019-01-08T08:08:54.172Z,36.57
2019-01-08T08:11:29.727Z,35.90
2019-01-08T08:14:02.228Z,35.20
2019-01-08T08:16:34.760Z,35.73
2019-01-08T08:19:08.186Z,37.00
2019-01-08T08:21:40.879Z,34.27
2019-01-08T08:24:13.358Z,36.17
2019-01-08T08:26:46.079Z,35.33
2019-01-08T08:29:18.957Z,34.17
2019-01-08T08:31:51.541Z,34.23
2019-01-08T08:34:24.145Z,33.33
2019-01-08T08:36:56.846Z,33.80
2019-01-08T08:39:36.887Z,34.60
2019-01-08T08:42:10.461Z,33.67
2019-01-08T08:44:43.001Z,33.13
2019-01-08T08:47:15.634Z,33.90
2019-01-08T08:49:48.602Z,34.43
2019-01-08T08:52:21.472Z,34.03
2019-01-08T08:54:54.148Z,33.80
2019-01-08T08:57:26.977Z,33.73
2019-01-08T08:59:59.957Z,33.43
2019-01-08T09:02:32.697Z,33.93
2019-01-08T09:05:05.430Z,32.43
2019-01-08T09:07:37.801Z,33.43
2019-01-08T09:10:10.295Z,33.10
2019-01-08T09:12:42.802Z,32.53
2019-01-08T09:15:15.641Z,33.63
2019-01-08T09:17:48.402Z,34.23
2019-01-08T09:20:20.954Z,34.30
2019-01-08T09:22:53.454Z,33.63
2019-01-08T09:25:26.143Z,32.43
2019-01-08T09:27:58.625Z,32.67
2019-01-08T09:30:31.406Z,30.60
2019-01-08T09:33:03.997Z,32.33
2019-01-08T09:35:37.032Z,31.00
2019-01-08T09:38:09.561Z,32.67
2019-01-08T09:40:42.136Z,32.03
2019-01-08T09:43:14.933Z,31.97
2019-01-08T09:45:47.729Z,33.00
2019-01-08T09:48:21.993Z,33.93
2019-01-08T09:50:54.880Z,32.47
2019-01-08T09:53:27.602Z,32.33
2019-01-08T09:56:00.033Z,34.40
2019-01-08T09:58:32.618Z,32.33
2019-01-08T10:01:05.375Z,32.10
2019-01-08T10:03:37.846Z,32.20
2019-01-08T10:06:10.342Z,33.17
2019-01-08T10:08:42.842Z,33.13
2019-01-08T10:11:15.323Z,32.23
2019-01-08T10:13:47.898Z,30.67
2019-01-08T10:16:20.412Z,32.93
2019-01-08T10:18:53.368Z,32.53
2019-01-08T10:21:25.808Z,32.23
2019-01-08T10:23:58.451Z,33.30
2019-01-08T10:26:30.931Z,32.47
2019-01-08T10:29:03.563Z,34.07
2019-01-08T10:31:37.604Z,33.40
2019-01-08T10:34:10.360Z,32.77
2019-01-08T10:36:42.918Z,34.13
2019-01-08T10:39:15.460Z,34.43
2019-01-08T10:41:47.850Z,34.70
2019-01-08T10:44:20.360Z,34.63
2019-01-08T10:46:52.984Z,36.80
2019-01-08T10:49:25.482Z,33.07
2019-01-08T10:51:58.110Z,35.80
2019-01-08T10:54:30.772Z,36.00
2019-01-08T10:57:05.211Z,33.87
2019-01-08T10:59:38.176Z,33.27
2019-01-08T11:02:10.620Z,32.83
2019-01-08T11:04:43.291Z,32.90
2019-01-08T11:07:15.693Z,33.17
2019-01-08T11:09:48.152Z,33.20
2019-01-08T11:12:20.687Z,34.13
2019-01-08T11:14:53.440Z,32.53
2019-01-08T11:17:25.974Z,33.77
2019-01-08T11:19:58.646Z,31.40
2019-01-08T11:22:31.215Z,32.67
2019-01-08T11:25:03.895Z,32.87
2019-01-08T11:27:36.528Z,32.00
2019-01-08T11:30:09.749Z,32.00
2019-01-08T11:32:42.520Z,30.77
2019-01-08T11:35:15.472Z,30.57
2019-01-08T11:37:48.136Z,30.33
2019-01-08T11:40:20.633Z,33.23
2019-01-08T11:42:53.336Z,30.83
2019-01-08T11:45:25.646Z,29.63
2019-01-08T11:48:03.846Z,30.23
2019-01-08T11:50:33.759Z,29.50
2019-01-08T11:53:06.409Z,29.70
2019-01-08T11:55:38.791Z,30.47
2019-01-08T11:58:11.881Z,29.00
2019-01-08T12:00:44.296Z,28.70
2019-01-08T12:03:16.783Z,29.13
2019-01-08T12:05:49.244Z,29.63
2019-01-08T12:08:22.061Z,27.77
2019-01-08T12:10:54.981Z,27.33
2019-01-08T12:13:27.670Z,28.87
2019-01-08T12:16:00.125Z,28.80
2019-01-08T12:18:32.441Z,28.40
2019-01-08T12:21:04.915Z,26.30
2019-01-08T12:23:37.431Z,27.43
2019-01-08T12:26:10.111Z,26.33
2019-01-08T12:28:42.713Z,26.77
2019-01-08T12:31:15.471Z,26.47
2019-01-08T12:33:48.067Z,25.83
2019-01-08T12:36:20.585Z,25.83
2019-01-08T12:38:53.151Z,25.70
2019-01-08T12:41:25.686Z,25.60
2019-01-08T12:43:59.636Z,24.83
2019-01-08T12:46:32.130Z,26.47
2019-01-08T12:49:04.698Z,26.27
2019-01-08T12:51:37.318Z,25.80
2019-01-08T12:54:09.932Z,27.90
2019-01-08T12:56:42.583Z,25.20
2019-01-08T12:59:15.250Z,25.10
2019-01-08T13:01:47.801Z,27.47
2019-01-08T13:04:20.467Z,26.97
2019-01-08T13:06:53.138Z,27.53
2019-01-08T13:09:25.581Z,26.87
2019-01-08T13:11:58.269Z,26.33
2019-01-08T13:14:31.259Z,26.07
2019-01-08T13:17:11.417Z,27.50
2019-01-08T13:19:38.326Z,27.30
2019-01-08T13:22:10.761Z,26.53
2019-01-08T13:24:43.161Z,27.40
2019-01-08T13:27:15.507Z,26.53
2019-01-08T13:29:48.059Z,25.73
2019-01-08T13:32:23.217Z,25.53
2019-01-08T13:34:54.756Z,26.73
2019-01-08T13:37:27.205Z,25.60
2019-01-08T13:39:59.714Z,27.33
2019-01-08T13:42:32.265Z,25.93
2019-01-08T13:45:05.262Z,25.63
2019-01-08T13:47:37.782Z,26.13
2019-01-08T13:50:11.259Z,26.50
2019-01-08T13:52:43.618Z,26.93
2019-01-08T13:55:16.010Z,27.27
2019-01-08T13:57:48.779Z,27.63
2019-01-08T14:00:22.808Z,27.03
2019-01-08T14:02:55.494Z,27.37
2019-01-08T14:05:27.931Z,29.37
2019-01-08T14:08:00.516Z,29.07
2019-01-08T14:10:33.087Z,27.57
2019-01-08T14:13:05.601Z,29.60
2019-01-08T14:15:38.254Z,27.97
2019-01-08T14:18:11.051Z,29.33
2019-01-08T14:20:43.598Z,29.73
2019-01-08T14:23:16.089Z,28.43
2019-01-08T14:25:48.753Z,28.47
2019-01-08T14:28:21.435Z,27.00
2019-01-08T14:30:54.018Z,27.60
2019-01-08T14:33:26.586Z,28.23
2019-01-08T14:36:11.970Z,28.57
2019-01-08T14:38:44.617Z,33.30
2019-01-08T14:41:17.319Z,39.80
2019-01-08T14:43:50.012Z,29.50
2019-01-08T14:46:23.010Z,30.30
2019-01-08T14:48:55.707Z,29.63
2019-01-08T14:51:28.065Z,30.93
2019-01-08T14:54:00.515Z,31.57
2019-01-08T14:56:33.007Z,31.00
2019-01-08T14:59:06.024Z,30.70
2019-01-08T15:01:38.840Z,30.67
2019-01-08T15:04:11.507Z,32.60
2019-01-08T15:06:44.170Z,36.63
2019-01-08T15:09:16.965Z,31.43
2019-01-08T15:11:49.727Z,32.90
2019-01-08T15:14:22.487Z,36.00
2019-01-08T15:16:54.889Z,32.63
2019-01-08T15:19:27.322Z,31.90
2019-01-08T15:21:59.754Z,32.53
2019-01-08T15:24:32.152Z,31.37
2019-01-08T15:27:04.673Z,32.00
2019-01-08T15:29:37.566Z,31.17
2019-01-08T15:32:10.115Z,31.13
2019-01-08T15:34:42.804Z,31.30
2019-01-08T15:37:14.960Z,32.93
2019-01-08T15:39:47.918Z,31.60
2019-01-08T15:42:20.842Z,34.13
2019-01-08T15:44:53.560Z,33.07
2019-01-08T15:47:26.195Z,32.07
2019-01-08T15:49:58.748Z,33.57
2019-01-08T15:52:31.260Z,33.63
2019-01-08T15:55:04.050Z,33.33
2019-01-08T15:57:36.728Z,30.73
2019-01-08T16:00:10.320Z,32.07
2019-01-08T16:02:42.878Z,32.43
2019-01-08T16:05:15.583Z,31.93
2019-01-08T16:07:48.255Z,31.63
2019-01-08T16:10:20.962Z,32.10
2019-01-08T16:12:53.369Z,32.77
2019-01-08T16:15:25.826Z,30.87
2019-01-08T16:17:58.284Z,31.53
2019-01-08T16:20:31.492Z,35.40
2019-01-08T16:23:03.804Z,31.63
2019-01-08T16:25:36.284Z,33.40
2019-01-08T16:28:08.842Z,32.83
2019-01-08T16:30:41.346Z,33.93
2019-01-08T16:33:16.097Z,31.93
2019-01-08T16:35:47.941Z,33.43
2019-01-08T16:38:20.398Z,33.73
2019-01-08T16:40:53.041Z,31.80
2019-01-08T16:43:25.745Z,33.53
2019-01-08T16:45:59.824Z,34.10
2019-01-08T16:48:32.598Z,35.17
2019-01-08T16:51:05.078Z,34.47
2019-01-08T16:53:48.479Z,33.20
2019-01-08T16:56:21.425Z,35.00
2019-01-08T16:58:53.869Z,35.83
2019-01-08T17:01:26.312Z,36.43
2019-01-08T17:03:59.145Z,35.10
2019-01-08T17:06:31.695Z,31.67
2019-01-08T17:09:05.532Z,32.70
2019-01-08T17:11:38.023Z,34.27
2019-01-08T17:14:10.943Z,35.53
2019-01-08T17:16:43.766Z,32.67
2019-01-08T17:19:16.473Z,34.77
2019-01-08T17:21:48.902Z,56.07
2019-01-08T17:24:21.525Z,41.10
2019-01-08T17:26:53.879Z,46.37
2019-01-08T17:29:26.519Z,43.93
2019-01-08T17:31:58.967Z,37.90
2019-01-08T17:34:31.614Z,34.73
2019-01-08T17:37:03.992Z,35.00
2019-01-08T17:39:36.773Z,34.80
2019-01-08T17:42:09.428Z,34.43
2019-01-08T17:44:42.228Z,34.17
2019-01-08T17:47:14.728Z,36.03
2019-01-08T17:49:47.312Z,35.27
2019-01-08T17:52:19.954Z,34.97
2019-01-08T17:54:52.540Z,35.87
2019-01-08T17:57:25.538Z,37.17
2019-01-08T17:59:58.541Z,38.03
2019-01-08T18:02:31.060Z,38.80
2019-01-08T18:05:03.998Z,37.83
2019-01-08T18:07:36.675Z,38.80
2019-01-08T18:10:10.586Z,36.57
2019-01-08T18:12:43.247Z,43.37
2019-01-08T18:15:17.083Z,39.80
2019-01-08T18:17:49.477Z,40.77
2019-01-08T18:20:22.277Z,40.43
2019-01-08T18:22:54.909Z,42.20
2019-01-08T18:25:27.617Z,38.57
2019-01-08T18:28:00.203Z,38.73
2019-01-08T18:30:33.404Z,37.07
2019-01-08T18:33:05.924Z,35.53
2019-01-08T18:35:38.495Z,36.80
2019-01-08T18:38:11.525Z,37.40
2019-01-08T18:40:44.147Z,36.70
2019-01-08T18:43:16.946Z,42.20
2019-01-08T18:45:49.713Z,46.87
2019-01-08T18:48:22.460Z,41.97
2019-01-08T18:50:55.271Z,35.83
2019-01-08T18:53:27.913Z,37.00
2019-01-08T18:56:00.304Z,37.27
2019-01-08T18:58:33.124Z,36.67
2019-01-08T19:01:06.068Z,38.40
2019-01-08T19:03:38.678Z,37.47
2019-01-08T19:06:11.512Z,37.83
2019-01-08T19:09:38.309Z,36.37
2019-01-08T19:12:24.293Z,34.83
2019-01-08T19:14:57.167Z,36.53
2019-01-08T19:17:31.696Z,37.00
2019-01-08T19:20:04.491Z,35.30
2019-01-08T19:22:37.241Z,37.70
2019-01-08T19:25:09.842Z,34.93
2019-01-08T19:27:42.247Z,39.00
2019-01-08T19:30:15.016Z,38.47
2019-01-08T19:32:47.698Z,36.37
2019-01-08T19:35:20.604Z,38.30
2019-01-08T19:37:53.488Z,36.80
2019-01-08T19:40:27.403Z,35.93
2019-01-08T19:42:59.975Z,37.13
2019-01-08T19:45:32.822Z,36.27
2019-01-08T19:48:05.348Z,35.47
2019-01-08T19:50:37.929Z,35.77
2019-01-08T19:53:10.966Z,35.43
2019-01-08T19:55:45.137Z,37.63
2019-01-08T19:58:17.669Z,36.30
2019-01-08T20:00:50.167Z,36.43
2019-01-08T20:03:22.997Z,37.93
2019-01-08T20:05:55.543Z,36.33
2019-01-08T20:08:28.276Z,38.00
2019-01-08T20:11:00.988Z,36.70
2019-01-08T20:13:33.515Z,46.27
2019-01-08T20:16:06.297Z,53.93
2019-01-08T20:18:45.154Z,40.67
2019-01-08T20:21:13.379Z,42.83
2019-01-08T20:23:45.870Z,41.20
2019-01-08T20:26:18.364Z,39.90
2019-01-08T20:28:51.169Z,38.97
2019-01-08T20:31:23.693Z,38.77
2019-01-08T20:33:56.408Z,37.77
2019-01-08T20:36:28.924Z,39.87
2019-01-08T20:39:01.326Z,38.57
2019-01-08T20:41:34.311Z,39.47
2019-01-08T20:44:06.969Z,41.17
2019-01-08T20:46:39.776Z,41.27
2019-01-08T20:49:12.655Z,40.73
2019-01-08T20:51:45.340Z,42.20
2019-01-08T20:54:18.004Z,40.53
2019-01-08T20:56:50.518Z,40.63
2019-01-08T20:59:23.012Z,40.73
2019-01-08T21:01:55.614Z,40.57
2019-01-08T21:04:35.360Z,83.93
2019-01-08T21:07:02.458Z,48.77
2019-01-08T21:09:35.456Z,42.10
2019-01-08T21:12:07.969Z,40.97
2019-01-08T21:14:40.654Z,44.03
2019-01-08T21:17:13.441Z,40.20
2019-01-08T21:19:46.479Z,39.40
2019-01-08T21:22:19.171Z,40.27
2019-01-08T21:24:51.884Z,43.30
2019-01-08T21:27:24.559Z,45.37
2019-01-08T21:29:57.301Z,46.93
2019-01-08T21:32:30.474Z,42.27
2019-01-08T21:35:03.144Z,41.10
2019-01-08T21:37:35.992Z,43.47
2019-01-08T21:40:08.782Z,43.47
2019-01-08T21:42:41.266Z,43.03
2019-01-08T21:45:14.350Z,42.13
2019-01-08T21:47:46.897Z,43.17
2019-01-08T21:50:19.373Z,42.37
2019-01-08T21:52:52.924Z,42.17
2019-01-08T21:55:25.539Z,40.20
2019-01-08T21:58:08.974Z,44.20
2019-01-08T22:00:43.247Z,48.93
2019-01-08T22:03:16.216Z,39.87
2019-01-08T22:05:48.864Z,38.97
2019-01-08T22:08:21.563Z,37.90
2019-01-08T22:10:54.194Z,39.53
2019-01-08T22:13:26.884Z,39.07
2019-01-08T22:16:09.573Z,44.03
2019-01-08T22:18:53.004Z,44.70
2019-01-08T22:21:36.769Z,59.47
2019-01-08T22:24:09.700Z,52.57
2019-01-08T22:26:42.293Z,47.83
2019-01-08T22:29:15.083Z,42.40
2019-01-08T22:31:47.846Z,41.03
2019-01-08T22:34:23.636Z,43.73
2019-01-08T22:36:56.132Z,39.63
2019-01-08T22:39:28.768Z,42.57
2019-01-08T22:42:01.389Z,43.43
2019-01-08T22:44:34.103Z,30.20
2019-01-08T22:47:06.779Z,28.37
2019-01-08T22:49:39.526Z,21.80
2019-01-08T22:52:12.423Z,9.70
2019-01-08T22:54:44.953Z,4.47
2019-01-08T22:57:17.403Z,2.40
2019-01-08T22:59:50.238Z,1.80
2019-01-08T23:02:22.594Z,1.77
2019-01-08T23:04:54.967Z,1.03
2019-01-08T23:07:27.439Z,1.23
2019-01-08T23:10:01.341Z,1.10
2019-01-08T23:12:34.202Z,1.10
2019-01-08T23:15:07.343Z,1.10
2019-01-08T23:17:39.915Z,1.00
2019-01-08T23:20:13.903Z,1.30
2019-01-08T23:22:46.448Z,1.10
2019-01-08T23:25:18.774Z,1.20
2019-01-08T23:27:51.442Z,1.30
2019-01-08T23:30:24.108Z,1.30
2019-01-08T23:32:56.733Z,1.00
2019-01-08T23:35:29.291Z,1.10
2019-01-08T23:38:02.025Z,1.10
2019-01-08T23:40:34.742Z,1.00
2019-01-08T23:43:08.705Z,1.00
2019-01-08T23:45:41.239Z,1.10
2019-01-08T23:48:13.704Z,1.10
2019-01-08T23:50:46.049Z,1.03
2019-01-08T23:53:37.068Z,1.00
2019-01-08T23:56:10.587Z,0.90
2019-01-08T23:58:43.170Z,0.80
